sensor_id;sensor_type;location;lat;lon;timestamp;P1;durP1;ratioP1;P2;durP2;ratioP2
9384;SDS011;4732;49.340;10.886;2023-03-01T04:03:05;16.60;;;10.73;;
9384;SDS011;4732;49.340;10.886;2023-03-01T04:05:35;20.57;;;12.50;;
9384;SDS011;4732;49.340;10.886;2023-03-01T04:08:03;19.60;;;11.40;;
9384;SDS011;4732;49.340;10.886;2023-03-01T04:10:35;21.87;;;12.67;;
9384;SDS011;4732;49.340;10.886;2023-03-01T04:13:33;19.70;;;12.70;;
9384;SDS011;4732;49.340;10.886;2023-03-01T04:19:32;16.20;;;10.57;;
9384;SDS011;4732;49.340;10.886;2023-03-01T04:22:12;20.33;;;12.67;;
9384;SDS011;4732;49.340;10.886;2023-03-01T04:24:46;20.07;;;11.40;;
9384;SDS011;4732;49.340;10.886;2023-03-01T04:27:38;17.30;;;10.97;;
9384;SDS011;4732;49.340;10.886;2023-03-01T04:30:04;17.87;;;11.03;;
9384;SDS011;4732;49.340;10.886;2023-03-01T04:32:30;18.43;;;11.20;;
9384;SDS011;4732;49.340;10.886;2023-03-01T04:34:55;21.00;;;12.73;;
9384;SDS011;4732;49.340;10.886;2023-03-01T04:37:21;18.73;;;11.80;;
9384;SDS011;4732;49.340;10.886;2023-03-01T04:39:46;20.27;;;12.80;;
9384;SDS011;4732;49.340;10.886;2023-03-01T04:42:12;22.93;;;12.30;;
9384;SDS011;4732;49.340;10.886;2023-03-01T04:44:38;22.00;;;12.83;;
9384;SDS011;4732;49.340;10.886;2023-03-01T04:47:05;19.30;;;12.17;;
9384;SDS011;4732;49.340;10.886;2023-03-01T04:49:31;20.73;;;12.43;;
9384;SDS011;4732;49.340;10.886;2023-03-01T04:51:56;19.53;;;11.93;;
9384;SDS011;4732;49.340;10.886;2023-03-01T04:54:30;18.43;;;12.03;;
9384;SDS011;4732;49.340;10.886;2023-03-01T04:56:56;19.40;;;13.00;;
9384;SDS011;4732;49.340;10.886;2023-03-01T04:59:22;23.07;;;12.50;;
9384;SDS011;4732;49.340;10.886;2023-03-01T05:01:49;19.37;;;12.13;;
9384;SDS011;4732;49.340;10.886;2023-03-01T05:04:15;21.10;;;12.70;;
9384;SDS011;4732;49.340;10.886;2023-03-01T05:06:41;17.63;;;11.77;;
9384;SDS011;4732;49.340;10.886;2023-03-01T05:09:07;23.57;;;13.90;;
9384;SDS011;4732;49.340;10.886;2023-03-01T05:11:32;21.43;;;12.57;;
9384;SDS011;4732;49.340;10.886;2023-03-01T05:14:04;20.10;;;12.40;;
9384;SDS011;4732;49.340;10.886;2023-03-01T05:16:31;18.97;;;12.30;;
9384;SDS011;4732;49.340;10.886;2023-03-01T05:18:57;20.73;;;12.37;;
9384;SDS011;4732;49.340;10.886;2023-03-01T05:21:23;21.77;;;13.13;;
9384;SDS011;4732;49.340;10.886;2023-03-01T05:23:49;22.00;;;12.57;;
9384;SDS011;4732;49.340;10.886;2023-03-01T05:26:17;23.07;;;13.20;;
9384;SDS011;4732;49.340;10.886;2023-03-01T05:28:46;23.27;;;12.73;;
9384;SDS011;4732;49.340;10.886;2023-03-01T05:31:12;19.53;;;11.07;;
9384;SDS011;4732;49.340;10.886;2023-03-01T05:33:40;21.27;;;12.17;;
9384;SDS011;4732;49.340;10.886;2023-03-01T05:36:10;21.50;;;12.60;;
9384;SDS011;4732;49.340;10.886;2023-03-01T05:38:42;21.70;;;12.30;;
9384;SDS011;4732;49.340;10.886;2023-03-01T05:41:13;25.47;;;13.83;;
9384;SDS011;4732;49.340;10.886;2023-03-01T05:43:41;22.33;;;12.77;;
9384;SDS011;4732;49.340;10.886;2023-03-01T05:46:09;19.53;;;11.50;;
9384;SDS011;4732;49.340;10.886;2023-03-01T05:48:37;21.20;;;12.77;;
9384;SDS011;4732;49.340;10.886;2023-03-01T05:51:03;20.33;;;12.77;;
9384;SDS011;4732;49.340;10.886;2023-03-01T05:53:29;19.77;;;12.37;;
9384;SDS011;4732;49.340;10.886;2023-03-01T05:55:56;19.57;;;12.10;;
9384;SDS011;4732;49.340;10.886;2023-03-01T05:58:21;21.43;;;13.33;;
9384;SDS011;4732;49.340;10.886;2023-03-01T06:00:47;19.87;;;12.40;;
9384;SDS011;4732;49.340;10.886;2023-03-01T06:03:14;20.80;;;12.43;;
9384;SDS011;4732;49.340;10.886;2023-03-01T06:05:41;21.53;;;13.03;;
9384;SDS011;4732;49.340;10.886;2023-03-01T06:08:08;23.90;;;13.97;;
9384;SDS011;4732;49.340;10.886;2023-03-01T06:10:35;22.77;;;13.23;;
9384;SDS011;4732;49.340;10.886;2023-03-01T06:13:00;25.03;;;13.20;;
9384;SDS011;4732;49.340;10.886;2023-03-01T06:15:26;19.43;;;12.37;;
9384;SDS011;4732;49.340;10.886;2023-03-01T06:17:53;22.87;;;13.53;;
9384;SDS011;4732;49.340;10.886;2023-03-01T06:20:21;18.90;;;12.33;;
9384;SDS011;4732;49.340;10.886;2023-03-01T06:22:48;21.17;;;12.43;;
9384;SDS011;4732;49.340;10.886;2023-03-01T06:25:15;21.27;;;12.93;;
9384;SDS011;4732;49.340;10.886;2023-03-01T06:27:42;23.50;;;13.80;;
9384;SDS011;4732;49.340;10.886;2023-03-01T06:30:09;21.87;;;13.23;;
9384;SDS011;4732;49.340;10.886;2023-03-01T06:32:36;20.50;;;12.67;;
9384;SDS011;4732;49.340;10.886;2023-03-01T06:35:03;20.33;;;13.90;;
9384;SDS011;4732;49.340;10.886;2023-03-01T06:37:29;23.77;;;14.00;;
9384;SDS011;4732;49.340;10.886;2023-03-01T06:39:55;22.67;;;13.50;;
9384;SDS011;4732;49.340;10.886;2023-03-01T06:42:20;21.07;;;13.10;;
9384;SDS011;4732;49.340;10.886;2023-03-01T06:44:46;20.90;;;13.13;;
9384;SDS011;4732;49.340;10.886;2023-03-01T06:47:11;24.23;;;14.17;;
9384;SDS011;4732;49.340;10.886;2023-03-01T06:49:37;24.63;;;13.30;;
9384;SDS011;4732;49.340;10.886;2023-03-01T06:52:03;19.93;;;12.60;;
9384;SDS011;4732;49.340;10.886;2023-03-01T06:54:29;24.67;;;14.23;;
9384;SDS011;4732;49.340;10.886;2023-03-01T06:56:54;24.67;;;14.93;;
9384;SDS011;4732;49.340;10.886;2023-03-01T06:59:20;23.87;;;14.87;;
9384;SDS011;4732;49.340;10.886;2023-03-01T07:01:45;28.23;;;16.03;;
9384;SDS011;4732;49.340;10.886;2023-03-01T07:04:12;25.60;;;15.70;;
9384;SDS011;4732;49.340;10.886;2023-03-01T07:06:38;24.13;;;15.80;;
9384;SDS011;4732;49.340;10.886;2023-03-01T07:09:04;26.03;;;15.40;;
9384;SDS011;4732;49.340;10.886;2023-03-01T07:11:29;23.97;;;15.40;;
9384;SDS011;4732;49.340;10.886;2023-03-01T07:13:55;24.43;;;15.30;;
9384;SDS011;4732;49.340;10.886;2023-03-01T07:16:21;28.20;;;14.97;;
9384;SDS011;4732;49.340;10.886;2023-03-01T07:18:47;23.20;;;14.17;;
9384;SDS011;4732;49.340;10.886;2023-03-01T07:21:13;22.27;;;14.60;;
9384;SDS011;4732;49.340;10.886;2023-03-01T07:23:40;25.10;;;15.23;;
9384;SDS011;4732;49.340;10.886;2023-03-01T07:26:06;35.97;;;22.70;;
9384;SDS011;4732;49.340;10.886;2023-03-01T07:28:31;44.00;;;27.20;;
9384;SDS011;4732;49.340;10.886;2023-03-01T07:31:04;41.07;;;25.03;;
9384;SDS011;4732;49.340;10.886;2023-03-01T07:33:30;48.37;;;29.00;;
9384;SDS011;4732;49.340;10.886;2023-03-01T07:35:58;45.17;;;26.03;;
9384;SDS011;4732;49.340;10.886;2023-03-01T07:38:25;48.47;;;27.57;;
9384;SDS011;4732;49.340;10.886;2023-03-01T07:40:52;25.97;;;16.57;;
9384;SDS011;4732;49.340;10.886;2023-03-01T07:43:17;30.90;;;18.30;;
9384;SDS011;4732;49.340;10.886;2023-03-01T07:45:43;27.20;;;16.40;;
9384;SDS011;4732;49.340;10.886;2023-03-01T07:48:09;25.83;;;16.53;;
9384;SDS011;4732;49.340;10.886;2023-03-01T07:50:34;28.53;;;16.60;;
9384;SDS011;4732;49.340;10.886;2023-03-01T07:53:00;30.53;;;17.63;;
9384;SDS011;4732;49.340;10.886;2023-03-01T07:55:29;31.30;;;17.63;;
9384;SDS011;4732;49.340;10.886;2023-03-01T07:58:15;28.37;;;16.47;;
9384;SDS011;4732;49.340;10.886;2023-03-01T08:01:01;24.60;;;15.70;;
9384;SDS011;4732;49.340;10.886;2023-03-01T08:07:00;24.97;;;15.77;;
9384;SDS011;4732;49.340;10.886;2023-03-01T08:18:29;23.30;;;15.73;;
9384;SDS011;4732;49.340;10.886;2023-03-01T08:20:55;24.47;;;15.23;;
9384;SDS011;4732;49.340;10.886;2023-03-01T08:26:42;25.77;;;16.20;;
9384;SDS011;4732;49.340;10.886;2023-03-01T08:29:08;27.03;;;17.13;;
9384;SDS011;4732;49.340;10.886;2023-03-01T08:31:35;27.13;;;15.73;;
9384;SDS011;4732;49.340;10.886;2023-03-01T08:34:03;22.30;;;15.67;;
9384;SDS011;4732;49.340;10.886;2023-03-01T08:36:32;23.00;;;15.40;;
9384;SDS011;4732;49.340;10.886;2023-03-01T08:39:01;27.17;;;17.03;;
9384;SDS011;4732;49.340;10.886;2023-03-01T08:41:26;25.53;;;15.70;;
9384;SDS011;4732;49.340;10.886;2023-03-01T08:43:52;25.73;;;16.07;;
9384;SDS011;4732;49.340;10.886;2023-03-01T08:46:23;25.40;;;16.47;;
9384;SDS011;4732;49.340;10.886;2023-03-01T08:48:52;25.43;;;17.03;;
9384;SDS011;4732;49.340;10.886;2023-03-01T08:51:18;27.83;;;16.23;;
9384;SDS011;4732;49.340;10.886;2023-03-01T08:53:45;24.17;;;16.10;;
9384;SDS011;4732;49.340;10.886;2023-03-01T08:56:10;25.87;;;16.80;;
9384;SDS011;4732;49.340;10.886;2023-03-01T08:58:36;23.87;;;15.07;;
9384;SDS011;4732;49.340;10.886;2023-03-01T09:01:09;24.23;;;16.00;;
9384;SDS011;4732;49.340;10.886;2023-03-01T09:03:35;26.20;;;16.63;;
9384;SDS011;4732;49.340;10.886;2023-03-01T09:06:02;27.17;;;17.07;;
9384;SDS011;4732;49.340;10.886;2023-03-01T09:08:28;25.00;;;15.33;;
9384;SDS011;4732;49.340;10.886;2023-03-01T09:10:55;21.80;;;15.13;;
9384;SDS011;4732;49.340;10.886;2023-03-01T09:13:20;25.03;;;17.37;;
9384;SDS011;4732;49.340;10.886;2023-03-01T09:15:48;24.80;;;17.03;;
9384;SDS011;4732;49.340;10.886;2023-03-01T09:18:14;27.40;;;16.40;;
9384;SDS011;4732;49.340;10.886;2023-03-01T09:20:39;22.70;;;15.60;;
9384;SDS011;4732;49.340;10.886;2023-03-01T09:23:05;26.50;;;16.27;;
9384;SDS011;4732;49.340;10.886;2023-03-01T09:25:31;24.17;;;16.47;;
9384;SDS011;4732;49.340;10.886;2023-03-01T09:27:58;25.40;;;16.67;;
9384;SDS011;4732;49.340;10.886;2023-03-01T09:30:24;25.23;;;16.83;;
9384;SDS011;4732;49.340;10.886;2023-03-01T09:32:49;24.03;;;16.90;;
9384;SDS011;4732;49.340;10.886;2023-03-01T09:35:15;24.63;;;16.37;;
9384;SDS011;4732;49.340;10.886;2023-03-01T09:37:40;26.13;;;15.53;;
9384;SDS011;4732;49.340;10.886;2023-03-01T09:40:12;24.30;;;16.13;;
9384;SDS011;4732;49.340;10.886;2023-03-01T09:42:51;21.07;;;15.40;;
9384;SDS011;4732;49.340;10.886;2023-03-01T09:45:23;24.37;;;15.57;;
9384;SDS011;4732;49.340;10.886;2023-03-01T09:47:54;24.83;;;15.43;;
9384;SDS011;4732;49.340;10.886;2023-03-01T09:50:21;24.40;;;15.53;;
9384;SDS011;4732;49.340;10.886;2023-03-01T09:52:51;22.03;;;15.97;;
9384;SDS011;4732;49.340;10.886;2023-03-01T09:56:11;22.60;;;14.97;;
9384;SDS011;4732;49.340;10.886;2023-03-01T10:07:02;25.00;;;16.23;;
9384;SDS011;4732;49.340;10.886;2023-03-01T10:09:32;23.33;;;15.60;;
9384;SDS011;4732;49.340;10.886;2023-03-01T10:12:01;24.10;;;15.17;;
9384;SDS011;4732;49.340;10.886;2023-03-01T10:14:34;23.63;;;14.90;;
9384;SDS011;4732;49.340;10.886;2023-03-01T10:17:04;21.70;;;14.30;;
9384;SDS011;4732;49.340;10.886;2023-03-01T10:19:51;24.30;;;16.07;;
9384;SDS011;4732;49.340;10.886;2023-03-01T10:22:21;21.10;;;14.57;;
9384;SDS011;4732;49.340;10.886;2023-03-01T10:24:53;22.87;;;14.40;;
9384;SDS011;4732;49.340;10.886;2023-03-01T10:27:22;22.47;;;14.70;;
9384;SDS011;4732;49.340;10.886;2023-03-01T10:32:23;23.50;;;15.33;;
9384;SDS011;4732;49.340;10.886;2023-03-01T10:34:49;22.47;;;14.37;;
9384;SDS011;4732;49.340;10.886;2023-03-01T10:37:18;22.87;;;15.00;;
9384;SDS011;4732;49.340;10.886;2023-03-01T10:40:29;24.47;;;15.67;;
9384;SDS011;4732;49.340;10.886;2023-03-01T10:42:38;23.23;;;15.53;;
9384;SDS011;4732;49.340;10.886;2023-03-01T10:48:16;21.10;;;14.33;;
9384;SDS011;4732;49.340;10.886;2023-03-01T10:51:12;23.03;;;15.50;;
9384;SDS011;4732;49.340;10.886;2023-03-01T10:53:42;20.33;;;14.43;;
9384;SDS011;4732;49.340;10.886;2023-03-01T10:56:14;19.63;;;13.57;;
9384;SDS011;4732;49.340;10.886;2023-03-01T10:58:41;21.43;;;14.43;;
9384;SDS011;4732;49.340;10.886;2023-03-01T11:04:02;22.27;;;14.20;;
9384;SDS011;4732;49.340;10.886;2023-03-01T11:06:31;23.13;;;14.10;;
9384;SDS011;4732;49.340;10.886;2023-03-01T11:09:13;23.20;;;14.33;;
9384;SDS011;4732;49.340;10.886;2023-03-01T11:11:41;24.03;;;14.70;;
9384;SDS011;4732;49.340;10.886;2023-03-01T11:16:43;21.37;;;13.93;;
9384;SDS011;4732;49.340;10.886;2023-03-01T11:24:43;23.90;;;14.80;;
9384;SDS011;4732;49.340;10.886;2023-03-01T11:27:53;22.57;;;14.43;;
9384;SDS011;4732;49.340;10.886;2023-03-01T11:32:46;22.73;;;13.67;;
9384;SDS011;4732;49.340;10.886;2023-03-01T11:35:20;18.80;;;13.50;;
9384;SDS011;4732;49.340;10.886;2023-03-01T11:37:59;22.50;;;14.90;;
9384;SDS011;4732;49.340;10.886;2023-03-01T11:40:47;19.63;;;13.50;;
9384;SDS011;4732;49.340;10.886;2023-03-01T11:43:36;22.20;;;14.73;;
9384;SDS011;4732;49.340;10.886;2023-03-01T11:57:20;21.40;;;15.17;;
9384;SDS011;4732;49.340;10.886;2023-03-01T12:00:21;22.30;;;15.70;;
9384;SDS011;4732;49.340;10.886;2023-03-01T12:03:02;22.90;;;14.87;;
9384;SDS011;4732;49.340;10.886;2023-03-01T12:08:35;23.10;;;14.37;;
9384;SDS011;4732;49.340;10.886;2023-03-01T12:11:21;21.00;;;13.87;;
9384;SDS011;4732;49.340;10.886;2023-03-01T12:22:11;19.73;;;13.37;;
9384;SDS011;4732;49.340;10.886;2023-03-01T12:33:00;18.37;;;12.80;;
9384;SDS011;4732;49.340;10.886;2023-03-01T12:41:43;19.03;;;12.50;;
9384;SDS011;4732;49.340;10.886;2023-03-01T12:50:01;17.83;;;13.00;;
9384;SDS011;4732;49.340;10.886;2023-03-01T12:52:36;20.57;;;12.67;;
9384;SDS011;4732;49.340;10.886;2023-03-01T12:55:08;16.33;;;12.20;;
9384;SDS011;4732;49.340;10.886;2023-03-01T12:58:06;21.10;;;12.20;;
9384;SDS011;4732;49.340;10.886;2023-03-01T13:00:57;16.37;;;12.10;;
9384;SDS011;4732;49.340;10.886;2023-03-01T13:03:35;17.33;;;11.90;;
9384;SDS011;4732;49.340;10.886;2023-03-01T13:06:33;15.30;;;11.63;;
9384;SDS011;4732;49.340;10.886;2023-03-01T13:11:55;16.17;;;12.43;;
9384;SDS011;4732;49.340;10.886;2023-03-01T13:16:50;15.17;;;10.73;;
9384;SDS011;4732;49.340;10.886;2023-03-01T13:21:49;18.17;;;11.23;;
9384;SDS011;4732;49.340;10.886;2023-03-01T13:24:24;18.57;;;11.33;;
9384;SDS011;4732;49.340;10.886;2023-03-01T13:29:51;18.63;;;12.20;;
9384;SDS011;4732;49.340;10.886;2023-03-01T13:34:54;15.80;;;12.27;;
9384;SDS011;4732;49.340;10.886;2023-03-01T13:37:23;16.10;;;11.40;;
9384;SDS011;4732;49.340;10.886;2023-03-01T13:39:51;18.17;;;12.40;;
9384;SDS011;4732;49.340;10.886;2023-03-01T13:42:34;16.83;;;12.00;;
9384;SDS011;4732;49.340;10.886;2023-03-01T13:45:12;20.63;;;12.60;;
9384;SDS011;4732;49.340;10.886;2023-03-01T13:47:39;16.17;;;10.80;;
9384;SDS011;4732;49.340;10.886;2023-03-01T13:50:15;16.30;;;11.37;;
9384;SDS011;4732;49.340;10.886;2023-03-01T13:52:53;16.20;;;12.10;;
9384;SDS011;4732;49.340;10.886;2023-03-01T13:55:37;17.17;;;10.97;;
9384;SDS011;4732;49.340;10.886;2023-03-01T13:58:23;18.80;;;11.37;;
9384;SDS011;4732;49.340;10.886;2023-03-01T14:00:57;14.10;;;10.80;;
9384;SDS011;4732;49.340;10.886;2023-03-01T14:03:33;14.47;;;10.27;;
9384;SDS011;4732;49.340;10.886;2023-03-01T14:08:33;16.57;;;11.10;;
9384;SDS011;4732;49.340;10.886;2023-03-01T14:13:48;15.00;;;10.70;;
9384;SDS011;4732;49.340;10.886;2023-03-01T14:16:29;13.67;;;10.33;;
9384;SDS011;4732;49.340;10.886;2023-03-01T14:21:45;15.10;;;9.93;;
9384;SDS011;4732;49.340;10.886;2023-03-01T14:24:18;14.70;;;10.50;;
9384;SDS011;4732;49.340;10.886;2023-03-01T14:26:47;21.87;;;10.90;;
9384;SDS011;4732;49.340;10.886;2023-03-01T14:29:27;15.07;;;10.87;;
9384;SDS011;4732;49.340;10.886;2023-03-01T14:32:08;15.23;;;10.83;;
9384;SDS011;4732;49.340;10.886;2023-03-01T14:34:35;16.50;;;10.43;;
9384;SDS011;4732;49.340;10.886;2023-03-01T14:37:10;17.57;;;10.20;;
9384;SDS011;4732;49.340;10.886;2023-03-01T14:39:57;15.97;;;10.80;;
9384;SDS011;4732;49.340;10.886;2023-03-01T14:42:25;14.13;;;10.10;;
9384;SDS011;4732;49.340;10.886;2023-03-01T14:44:54;15.10;;;9.87;;
9384;SDS011;4732;49.340;10.886;2023-03-01T14:47:25;12.93;;;9.73;;
9384;SDS011;4732;49.340;10.886;2023-03-01T14:49:59;14.80;;;10.10;;
9384;SDS011;4732;49.340;10.886;2023-03-01T14:52:35;14.23;;;10.07;;
9384;SDS011;4732;49.340;10.886;2023-03-01T14:55:50;16.57;;;11.63;;
9384;SDS011;4732;49.340;10.886;2023-03-01T14:57:55;14.77;;;10.83;;
9384;SDS011;4732;49.340;10.886;2023-03-01T15:00:24;14.63;;;10.80;;
9384;SDS011;4732;49.340;10.886;2023-03-01T15:02:53;13.03;;;10.17;;
9384;SDS011;4732;49.340;10.886;2023-03-01T15:05:30;15.77;;;11.10;;
9384;SDS011;4732;49.340;10.886;2023-03-01T15:07:58;13.60;;;10.73;;
9384;SDS011;4732;49.340;10.886;2023-03-01T15:10:30;14.00;;;10.80;;
9384;SDS011;4732;49.340;10.886;2023-03-01T15:13:13;14.40;;;10.53;;
9384;SDS011;4732;49.340;10.886;2023-03-01T15:15:46;15.03;;;10.20;;
9384;SDS011;4732;49.340;10.886;2023-03-01T15:20:43;14.63;;;10.57;;
9384;SDS011;4732;49.340;10.886;2023-03-01T15:23:18;14.87;;;10.50;;
9384;SDS011;4732;49.340;10.886;2023-03-01T15:25:52;17.07;;;10.90;;
9384;SDS011;4732;49.340;10.886;2023-03-01T15:28:22;14.03;;;10.10;;
9384;SDS011;4732;49.340;10.886;2023-03-01T15:30:54;16.60;;;10.73;;
9384;SDS011;4732;49.340;10.886;2023-03-01T15:35:53;16.03;;;10.97;;
9384;SDS011;4732;49.340;10.886;2023-03-01T15:39:02;16.97;;;10.83;;
9384;SDS011;4732;49.340;10.886;2023-03-01T15:41:30;18.07;;;11.90;;
9384;SDS011;4732;49.340;10.886;2023-03-01T15:43:59;16.00;;;11.67;;
9384;SDS011;4732;49.340;10.886;2023-03-01T15:46:39;16.53;;;10.87;;
9384;SDS011;4732;49.340;10.886;2023-03-01T15:49:17;13.70;;;10.43;;
9384;SDS011;4732;49.340;10.886;2023-03-01T15:51:53;15.37;;;11.20;;
9384;SDS011;4732;49.340;10.886;2023-03-01T15:54:21;15.40;;;10.73;;
9384;SDS011;4732;49.340;10.886;2023-03-01T15:56:48;14.23;;;11.33;;
9384;SDS011;4732;49.340;10.886;2023-03-01T15:59:15;17.80;;;10.60;;
9384;SDS011;4732;49.340;10.886;2023-03-01T16:01:41;14.07;;;10.63;;
9384;SDS011;4732;49.340;10.886;2023-03-01T16:04:12;17.23;;;11.70;;
9384;SDS011;4732;49.340;10.886;2023-03-01T16:06:45;18.63;;;11.93;;
9384;SDS011;4732;49.340;10.886;2023-03-01T16:09:23;14.33;;;11.20;;
9384;SDS011;4732;49.340;10.886;2023-03-01T16:11:50;15.37;;;11.23;;
9384;SDS011;4732;49.340;10.886;2023-03-01T16:14:16;17.50;;;11.87;;
9384;SDS011;4732;49.340;10.886;2023-03-01T16:16:43;17.07;;;11.60;;
9384;SDS011;4732;49.340;10.886;2023-03-01T16:19:10;17.03;;;11.67;;
9384;SDS011;4732;49.340;10.886;2023-03-01T16:21:36;15.17;;;11.33;;
9384;SDS011;4732;49.340;10.886;2023-03-01T16:24:02;17.00;;;11.67;;
9384;SDS011;4732;49.340;10.886;2023-03-01T16:26:28;15.90;;;11.47;;
9384;SDS011;4732;49.340;10.886;2023-03-01T16:28:54;17.93;;;11.40;;
9384;SDS011;4732;49.340;10.886;2023-03-01T16:31:21;15.60;;;11.10;;
9384;SDS011;4732;49.340;10.886;2023-03-01T16:33:48;15.73;;;10.93;;
9384;SDS011;4732;49.340;10.886;2023-03-01T16:36:18;15.70;;;11.17;;
9384;SDS011;4732;49.340;10.886;2023-03-01T16:38:44;17.27;;;11.90;;
9384;SDS011;4732;49.340;10.886;2023-03-01T16:41:14;18.73;;;13.10;;
9384;SDS011;4732;49.340;10.886;2023-03-01T16:43:41;17.07;;;11.77;;
9384;SDS011;4732;49.340;10.886;2023-03-01T16:46:10;17.77;;;13.03;;
9384;SDS011;4732;49.340;10.886;2023-03-01T16:48:37;19.10;;;14.10;;
9384;SDS011;4732;49.340;10.886;2023-03-01T16:51:04;19.37;;;13.80;;
9384;SDS011;4732;49.340;10.886;2023-03-01T16:53:29;19.13;;;13.07;;
9384;SDS011;4732;49.340;10.886;2023-03-01T16:55:55;18.93;;;13.00;;
9384;SDS011;4732;49.340;10.886;2023-03-01T16:58:21;16.73;;;13.00;;
9384;SDS011;4732;49.340;10.886;2023-03-01T17:00:49;20.73;;;13.30;;
9384;SDS011;4732;49.340;10.886;2023-03-01T17:03:19;20.20;;;13.10;;
9384;SDS011;4732;49.340;10.886;2023-03-01T17:05:45;17.00;;;12.90;;
9384;SDS011;4732;49.340;10.886;2023-03-01T17:08:12;17.63;;;12.60;;
9384;SDS011;4732;49.340;10.886;2023-03-01T17:10:37;17.90;;;13.33;;
9384;SDS011;4732;49.340;10.886;2023-03-01T17:13:03;18.17;;;13.33;;
9384;SDS011;4732;49.340;10.886;2023-03-01T17:15:29;20.33;;;13.40;;
9384;SDS011;4732;49.340;10.886;2023-03-01T17:17:54;19.80;;;14.23;;
9384;SDS011;4732;49.340;10.886;2023-03-01T17:20:20;25.70;;;14.53;;
9384;SDS011;4732;49.340;10.886;2023-03-01T17:22:45;19.63;;;13.93;;
9384;SDS011;4732;49.340;10.886;2023-03-01T17:25:11;20.13;;;14.00;;
9384;SDS011;4732;49.340;10.886;2023-03-01T17:27:37;20.83;;;14.60;;
9384;SDS011;4732;49.340;10.886;2023-03-01T17:30:04;21.90;;;14.50;;
9384;SDS011;4732;49.340;10.886;2023-03-01T17:32:31;20.80;;;15.60;;
9384;SDS011;4732;49.340;10.886;2023-03-01T17:34:57;22.70;;;15.87;;
9384;SDS011;4732;49.340;10.886;2023-03-01T17:37:22;20.63;;;14.20;;
9384;SDS011;4732;49.340;10.886;2023-03-01T17:39:48;20.27;;;14.90;;
9384;SDS011;4732;49.340;10.886;2023-03-01T17:42:15;21.07;;;14.03;;
9384;SDS011;4732;49.340;10.886;2023-03-01T17:44:41;20.90;;;14.10;;
9384;SDS011;4732;49.340;10.886;2023-03-01T17:47:07;20.77;;;13.93;;
9384;SDS011;4732;49.340;10.886;2023-03-01T17:49:34;20.60;;;14.63;;
9384;SDS011;4732;49.340;10.886;2023-03-01T17:51:59;22.03;;;14.33;;
9384;SDS011;4732;49.340;10.886;2023-03-01T17:54:25;19.80;;;14.17;;
9384;SDS011;4732;49.340;10.886;2023-03-01T17:56:50;21.27;;;14.93;;
9384;SDS011;4732;49.340;10.886;2023-03-01T17:59:16;17.93;;;13.77;;
9384;SDS011;4732;49.340;10.886;2023-03-01T18:01:42;18.27;;;13.37;;
9384;SDS011;4732;49.340;10.886;2023-03-01T18:04:08;20.03;;;14.17;;
9384;SDS011;4732;49.340;10.886;2023-03-01T18:06:34;19.00;;;13.93;;
9384;SDS011;4732;49.340;10.886;2023-03-01T18:09:00;18.77;;;13.13;;
9384;SDS011;4732;49.340;10.886;2023-03-01T18:11:26;18.53;;;13.67;;
9384;SDS011;4732;49.340;10.886;2023-03-01T18:13:52;19.53;;;13.83;;
9384;SDS011;4732;49.340;10.886;2023-03-01T18:16:18;21.20;;;14.90;;
9384;SDS011;4732;49.340;10.886;2023-03-01T18:18:45;23.07;;;14.17;;
9384;SDS011;4732;49.340;10.886;2023-03-01T18:21:11;18.50;;;13.57;;
9384;SDS011;4732;49.340;10.886;2023-03-01T18:23:37;19.67;;;14.67;;
9384;SDS011;4732;49.340;10.886;2023-03-01T18:26:05;21.37;;;14.30;;
9384;SDS011;4732;49.340;10.886;2023-03-01T18:28:34;20.80;;;14.73;;
9384;SDS011;4732;49.340;10.886;2023-03-01T18:31:01;23.00;;;16.17;;
9384;SDS011;4732;49.340;10.886;2023-03-01T18:33:29;21.03;;;15.13;;
9384;SDS011;4732;49.340;10.886;2023-03-01T18:35:55;25.67;;;16.20;;
9384;SDS011;4732;49.340;10.886;2023-03-01T18:38:21;22.20;;;15.37;;
9384;SDS011;4732;49.340;10.886;2023-03-01T18:40:47;21.63;;;15.30;;
9384;SDS011;4732;49.340;10.886;2023-03-01T18:43:16;21.90;;;15.37;;
9384;SDS011;4732;49.340;10.886;2023-03-01T18:45:42;25.23;;;16.57;;
9384;SDS011;4732;49.340;10.886;2023-03-01T18:48:09;22.30;;;16.37;;
9384;SDS011;4732;49.340;10.886;2023-03-01T18:50:36;20.37;;;14.87;;
9384;SDS011;4732;49.340;10.886;2023-03-01T18:53:02;22.67;;;15.67;;
9384;SDS011;4732;49.340;10.886;2023-03-01T18:55:28;23.13;;;16.63;;
9384;SDS011;4732;49.340;10.886;2023-03-01T18:57:54;23.37;;;16.57;;
9384;SDS011;4732;49.340;10.886;2023-03-01T19:00:19;22.67;;;15.10;;
9384;SDS011;4732;49.340;10.886;2023-03-01T19:02:45;22.93;;;15.87;;
9384;SDS011;4732;49.340;10.886;2023-03-01T19:05:11;20.67;;;15.10;;
9384;SDS011;4732;49.340;10.886;2023-03-01T19:07:37;24.40;;;16.00;;
9384;SDS011;4732;49.340;10.886;2023-03-01T19:10:03;23.77;;;16.07;;
9384;SDS011;4732;49.340;10.886;2023-03-01T19:12:29;23.30;;;15.70;;
9384;SDS011;4732;49.340;10.886;2023-03-01T19:14:55;24.43;;;16.57;;
9384;SDS011;4732;49.340;10.886;2023-03-01T19:17:21;24.80;;;15.90;;
9384;SDS011;4732;49.340;10.886;2023-03-01T19:19:54;25.90;;;17.23;;
9384;SDS011;4732;49.340;10.886;2023-03-01T19:22:20;24.37;;;16.57;;
9384;SDS011;4732;49.340;10.886;2023-03-01T19:24:45;27.50;;;17.27;;
9384;SDS011;4732;49.340;10.886;2023-03-01T19:27:11;28.13;;;18.93;;
9384;SDS011;4732;49.340;10.886;2023-03-01T19:29:36;27.30;;;18.90;;
9384;SDS011;4732;49.340;10.886;2023-03-01T19:32:02;25.97;;;18.17;;
9384;SDS011;4732;49.340;10.886;2023-03-01T19:34:28;27.20;;;18.93;;
9384;SDS011;4732;49.340;10.886;2023-03-01T19:36:53;26.83;;;18.20;;
9384;SDS011;4732;49.340;10.886;2023-03-01T19:39:19;28.97;;;19.67;;
9384;SDS011;4732;49.340;10.886;2023-03-01T19:41:45;26.03;;;17.70;;
9384;SDS011;4732;49.340;10.886;2023-03-01T19:44:10;25.97;;;18.13;;
9384;SDS011;4732;49.340;10.886;2023-03-01T19:46:36;26.07;;;17.73;;
9384;SDS011;4732;49.340;10.886;2023-03-01T19:49:02;30.57;;;18.90;;
9384;SDS011;4732;49.340;10.886;2023-03-01T19:51:29;30.43;;;19.27;;
9384;SDS011;4732;49.340;10.886;2023-03-01T19:54:00;28.57;;;18.20;;
9384;SDS011;4732;49.340;10.886;2023-03-01T19:56:26;29.37;;;19.20;;
9384;SDS011;4732;49.340;10.886;2023-03-01T19:58:51;26.13;;;18.07;;
9384;SDS011;4732;49.340;10.886;2023-03-01T20:01:24;27.63;;;18.87;;
9384;SDS011;4732;49.340;10.886;2023-03-01T20:03:53;28.60;;;18.73;;
9384;SDS011;4732;49.340;10.886;2023-03-01T20:06:19;30.93;;;18.40;;
9384;SDS011;4732;49.340;10.886;2023-03-01T20:08:45;30.53;;;20.57;;
9384;SDS011;4732;49.340;10.886;2023-03-01T20:11:12;25.33;;;17.70;;
9384;SDS011;4732;49.340;10.886;2023-03-01T20:13:39;27.23;;;18.63;;
9384;SDS011;4732;49.340;10.886;2023-03-01T20:16:05;27.53;;;18.63;;
9384;SDS011;4732;49.340;10.886;2023-03-01T20:18:31;30.53;;;20.63;;
9384;SDS011;4732;49.340;10.886;2023-03-01T20:20:58;30.57;;;19.70;;
9384;SDS011;4732;49.340;10.886;2023-03-01T20:23:24;28.67;;;19.70;;
9384;SDS011;4732;49.340;10.886;2023-03-01T20:25:50;30.83;;;20.07;;
9384;SDS011;4732;49.340;10.886;2023-03-01T20:28:17;34.10;;;18.90;;
9384;SDS011;4732;49.340;10.886;2023-03-01T20:30:43;29.97;;;18.93;;
9384;SDS011;4732;49.340;10.886;2023-03-01T20:33:09;29.40;;;19.17;;
9384;SDS011;4732;49.340;10.886;2023-03-01T20:35:35;28.63;;;18.93;;
9384;SDS011;4732;49.340;10.886;2023-03-01T20:38:02;27.37;;;18.90;;
9384;SDS011;4732;49.340;10.886;2023-03-01T20:40:27;28.80;;;19.10;;
9384;SDS011;4732;49.340;10.886;2023-03-01T20:42:54;28.63;;;19.17;;
9384;SDS011;4732;49.340;10.886;2023-03-01T20:45:20;28.07;;;18.10;;
9384;SDS011;4732;49.340;10.886;2023-03-01T20:47:47;26.47;;;18.33;;